createdAt,value
2018-06-04T00:04:27.014Z,19.80
2018-06-04T00:14:34.540Z,19.50
2018-06-04T00:19:38.505Z,19.50
2018-06-04T00:24:42.467Z,19.60
2018-06-04T00:29:46.447Z,19.40
2018-06-04T00:34:54.077Z,19.60
2018-06-04T00:39:58.001Z,19.70
2018-06-04T00:50:06.502Z,19.20
2018-06-04T00:55:10.459Z,19.10
2018-06-04T01:00:14.394Z,19.30
2018-06-04T01:05:18.351Z,19.30
2018-06-04T01:10:22.321Z,19.20
2018-06-04T01:15:26.276Z,19.00
2018-06-04T01:20:30.239Z,19.00
2018-06-04T01:25:34.207Z,18.90
2018-06-04T01:30:38.175Z,19.10
2018-06-04T01:35:42.113Z,19.10
2018-06-04T01:40:46.086Z,18.90
2018-06-04T01:45:50.050Z,19.20
2018-06-04T01:50:53.995Z,19.30
2018-06-04T01:55:57.928Z,19.30
2018-06-04T02:01:01.967Z,19.30
2018-06-04T02:11:09.518Z,19.20
2018-06-04T02:16:15.673Z,19.50
2018-06-04T02:21:19.602Z,19.50
2018-06-04T02:26:23.566Z,19.70
2018-06-04T02:31:27.542Z,19.90
2018-06-04T02:36:31.479Z,19.90
2018-06-04T02:46:39.024Z,20.10
2018-06-04T02:51:42.980Z,23.10
2018-06-04T02:56:46.907Z,20.10
2018-06-04T03:01:50.857Z,20.10
2018-06-04T03:06:54.819Z,20.10
2018-06-04T03:17:02.379Z,20.00
2018-06-04T03:22:06.307Z,19.90
2018-06-04T03:27:10.261Z,19.90
2018-06-04T03:37:18.017Z,19.90
2018-06-04T03:42:21.954Z,19.90
2018-06-04T03:47:25.900Z,20.00
2018-06-04T03:52:29.856Z,20.00
2018-06-04T03:57:33.796Z,19.90
2018-06-04T04:02:37.763Z,19.60
2018-06-04T04:12:45.293Z,19.80
2018-06-04T04:17:49.247Z,19.90
2018-06-04T04:22:53.215Z,20.00
2018-06-04T04:27:57.190Z,20.00
2018-06-04T04:38:05.559Z,20.20
2018-06-04T04:43:10.701Z,20.40
2018-06-04T04:48:14.827Z,20.50
2018-06-04T04:53:18.781Z,20.80
2018-06-04T04:58:22.723Z,20.90
2018-06-04T05:03:26.679Z,21.10
2018-06-04T05:08:30.662Z,21.20
2018-06-04T05:13:34.643Z,21.30
2018-06-04T05:18:38.626Z,21.50
2018-06-04T05:28:46.236Z,22.00
2018-06-04T05:33:50.207Z,22.20
2018-06-04T05:38:54.166Z,22.30
2018-06-04T05:43:58.115Z,22.50
2018-06-04T05:49:02.074Z,22.90
2018-06-04T05:54:06.085Z,23.30
2018-06-04T05:59:10.044Z,23.50
2018-06-04T06:04:14.019Z,23.80
2018-06-04T06:09:18.048Z,23.90
2018-06-04T06:14:22.026Z,24.40
2018-06-04T06:19:25.933Z,24.90
2018-06-04T06:24:29.895Z,25.20
2018-06-04T06:29:33.884Z,25.50
2018-06-04T06:34:37.807Z,25.80
2018-06-04T06:39:42.960Z,26.20
2018-06-04T06:44:46.893Z,26.50
2018-06-04T06:49:50.875Z,26.90
2018-06-04T06:54:54.831Z,27.50
2018-06-04T06:59:58.798Z,27.70
2018-06-04T07:05:02.772Z,28.30
2018-06-04T07:10:06.755Z,28.20
2018-06-04T07:15:10.726Z,28.30
2018-06-04T07:20:14.675Z,28.80
2018-06-04T07:30:22.211Z,29.20
2018-06-04T07:35:27.016Z,29.60
2018-06-04T07:40:30.955Z,29.20
2018-06-04T07:45:34.899Z,29.30
2018-06-04T07:55:42.443Z,30.80
2018-06-04T08:00:46.427Z,31.20
2018-06-04T08:05:50.415Z,32.50
2018-06-04T08:10:54.452Z,32.30
2018-06-04T08:15:58.422Z,31.70
2018-06-04T08:21:02.399Z,30.80
2018-06-04T08:26:06.384Z,30.00
2018-06-04T08:31:10.397Z,31.40
2018-06-04T08:36:14.366Z,32.70
2018-06-04T08:41:18.303Z,32.90
2018-06-04T08:46:22.267Z,33.00
2018-06-04T08:51:26.207Z,33.40
2018-06-04T08:56:30.155Z,34.00
2018-06-04T09:01:34.112Z,34.10
2018-06-04T09:06:38.096Z,34.40
2018-06-04T09:16:45.638Z,33.40
2018-06-04T09:21:49.814Z,33.20
2018-06-04T09:26:53.739Z,34.30
2018-06-04T09:31:57.679Z,34.70
2018-06-04T09:37:01.620Z,36.30
2018-06-04T09:42:06.448Z,35.90
2018-06-04T09:47:10.432Z,35.10
2018-06-04T09:52:14.383Z,35.50
2018-06-04T09:57:18.344Z,34.40
2018-06-04T10:02:22.271Z,35.10
2018-06-04T10:07:27.114Z,33.70
2018-06-04T10:12:31.179Z,33.80
2018-06-04T10:17:35.125Z,34.10
2018-06-04T10:22:39.075Z,34.10
2018-06-04T10:27:43.017Z,33.30
2018-06-04T10:32:47.007Z,33.30
2018-06-04T10:37:50.947Z,33.10
2018-06-04T10:42:54.894Z,32.50
2018-06-04T10:53:02.415Z,33.20
2018-06-04T10:58:06.368Z,33.20
2018-06-04T11:03:10.296Z,33.40
2018-06-04T11:08:14.317Z,34.00
2018-06-04T11:13:18.248Z,34.80
2018-06-04T11:18:22.193Z,34.30
2018-06-04T11:23:26.144Z,34.50
2018-06-04T11:28:30.101Z,35.00
2018-06-04T11:33:34.069Z,34.70
2018-06-04T11:38:38.215Z,34.50
2018-06-04T11:43:42.142Z,35.20
2018-06-04T11:48:46.104Z,35.90
2018-06-04T11:58:53.622Z,33.60
2018-06-04T12:03:57.567Z,34.10
2018-06-04T12:09:01.502Z,35.20
2018-06-04T12:14:05.478Z,35.90
2018-06-04T12:19:09.421Z,36.50
2018-06-04T12:24:13.391Z,36.80
2018-06-04T12:29:17.352Z,37.10
2018-06-04T12:34:21.309Z,36.00
2018-06-04T12:39:25.259Z,35.90
2018-06-04T12:44:29.226Z,36.40
2018-06-04T12:49:33.185Z,37.00
2018-06-04T12:54:37.160Z,37.80
2018-06-04T12:59:41.099Z,36.40
2018-06-04T13:04:45.129Z,34.10
2018-06-04T13:09:48.994Z,32.90
2018-06-04T13:14:52.930Z,34.10
2018-06-04T13:19:56.884Z,35.00
2018-06-04T13:25:00.855Z,34.00
2018-06-04T13:35:08.424Z,35.00
2018-06-04T13:40:12.363Z,36.00
2018-06-04T13:45:16.325Z,37.00
2018-06-04T13:50:20.349Z,34.70
2018-06-04T13:55:24.324Z,33.00
2018-06-04T14:00:28.302Z,33.40
2018-06-04T14:05:32.254Z,35.10
2018-06-04T14:10:36.213Z,35.60
2018-06-04T14:15:40.170Z,34.00
2018-06-04T14:20:44.130Z,34.70
2018-06-04T14:25:48.830Z,35.40
2018-06-04T14:30:52.806Z,34.40
2018-06-04T14:35:56.882Z,34.20
2018-06-04T14:41:00.834Z,33.50
2018-06-04T14:46:04.771Z,34.00
2018-06-04T14:51:08.706Z,34.60
2018-06-04T14:56:12.655Z,35.00
2018-06-04T15:01:16.631Z,34.90
2018-06-04T15:11:24.223Z,34.00
2018-06-04T15:16:28.171Z,34.30
2018-06-04T15:21:32.103Z,33.40
2018-06-04T15:26:36.062Z,34.20
2018-06-04T15:31:40.017Z,34.20
2018-06-04T15:36:43.958Z,34.50
2018-06-04T15:41:47.934Z,34.40
2018-06-04T15:46:51.909Z,34.10
2018-06-04T15:51:55.844Z,33.60
2018-06-04T15:57:00.506Z,33.30
2018-06-04T16:02:04.462Z,33.30
2018-06-04T16:07:08.426Z,33.10
2018-06-04T16:12:12.431Z,32.60
2018-06-04T16:17:16.382Z,32.10
2018-06-04T16:22:20.323Z,31.80
2018-06-04T16:27:24.297Z,32.40
2018-06-04T16:32:28.263Z,32.70
2018-06-04T16:37:32.539Z,32.50
2018-06-04T16:42:36.426Z,32.30
2018-06-04T16:52:44.062Z,32.30
2018-06-04T16:57:48.015Z,31.70
2018-06-04T17:02:51.939Z,30.80
2018-06-04T17:07:55.903Z,30.20
2018-06-04T17:12:59.882Z,29.90
2018-06-04T17:18:03.823Z,29.70
2018-06-04T17:23:07.764Z,29.60
2018-06-04T17:28:11.712Z,29.50
2018-06-04T17:33:16.055Z,29.50
2018-06-04T17:38:20.212Z,29.30
2018-06-04T17:43:24.159Z,29.20
2018-06-04T17:48:28.966Z,29.10
2018-06-04T17:53:32.914Z,29.00
2018-06-04T17:58:36.851Z,28.90
2018-06-04T18:03:40.809Z,28.90
2018-06-04T18:08:44.750Z,28.80
2018-06-04T18:13:48.715Z,28.70
2018-06-04T18:18:52.772Z,28.50
2018-06-04T18:23:56.743Z,28.10
2018-06-04T18:29:00.734Z,28.00
2018-06-04T18:34:04.687Z,28.00
2018-06-04T18:39:11.088Z,27.90
2018-06-04T18:49:18.651Z,27.40
2018-06-04T18:54:22.612Z,27.20
2018-06-04T18:59:26.571Z,27.10
2018-06-04T19:09:34.094Z,26.90
2018-06-04T19:14:38.035Z,26.80
2018-06-04T19:19:41.978Z,26.70
2018-06-04T19:24:45.935Z,26.60
2018-06-04T19:29:49.883Z,26.50
2018-06-04T19:34:53.862Z,26.20
2018-06-04T19:39:57.850Z,26.00
2018-06-04T19:45:01.836Z,25.90
2018-06-04T19:50:05.839Z,25.70
2018-06-04T19:55:09.802Z,25.50
2018-06-04T20:00:13.774Z,25.10
2018-06-04T20:05:17.742Z,25.10
2018-06-04T20:10:21.706Z,25.20
2018-06-04T20:20:29.572Z,24.90
2018-06-04T20:30:37.138Z,24.70
2018-06-04T20:35:41.156Z,24.70
2018-06-04T20:40:45.163Z,24.70
2018-06-04T20:45:49.153Z,24.80
2018-06-04T20:50:53.097Z,24.60
2018-06-04T20:55:57.091Z,24.30
2018-06-04T21:01:01.047Z,24.20
2018-06-04T21:06:05.012Z,24.10
2018-06-04T21:11:08.942Z,23.90
2018-06-04T21:16:12.894Z,23.80
2018-06-04T21:26:20.470Z,23.70
2018-06-04T21:31:24.487Z,23.60
2018-06-04T21:41:32.054Z,23.00
2018-06-04T21:46:35.998Z,23.10
2018-06-04T21:56:43.632Z,23.40
2018-06-04T22:01:47.594Z,23.20
2018-06-04T22:06:51.551Z,23.10
2018-06-04T22:11:55.528Z,23.10
2018-06-04T22:16:59.542Z,23.00
2018-06-04T22:22:03.426Z,22.80
2018-06-04T22:27:07.399Z,22.50
2018-06-04T22:32:11.356Z,22.40
2018-06-04T22:42:18.893Z,22.00
2018-06-04T22:47:22.855Z,22.00
2018-06-04T22:52:26.797Z,22.00
2018-06-04T22:57:30.752Z,21.80
2018-06-04T23:02:34.694Z,21.90
2018-06-04T23:07:41.015Z,21.80
2018-06-04T23:12:44.979Z,21.80
2018-06-04T23:22:52.963Z,21.60
2018-06-04T23:27:56.943Z,21.70
2018-06-04T23:33:00.922Z,21.80
2018-06-04T23:38:04.859Z,21.80
2018-06-04T23:43:08.995Z,21.80
2018-06-04T23:48:12.955Z,21.60
2018-06-04T23:53:16.910Z,21.60
2018-06-04T23:58:20.911Z,21.40
